Bernadotte, Illinois
Current Conditions -  °F | °C
As of 10:15 AM on Saturday 20 Dec 2014 (Local Time) from KMQB Reporting Station
Haze Haze  
Wind Chill: 26°   Ceiling: 3000
Heat Index: 32°   Visibility: 5mi
Dew Point: 29°   Wind: 6mph
Humidity: 90%   Direction: 150°SSE
Pressure: 30.28"   Gusts: NA
Location:  40.364°N, 90.2765°W
Report Text: KMQB 201615Z AUTO 15005KT 5SM BR OVC030 00/M01 A3028 RMK AO2 T00001014
Loading
Personal Weather Stations






























Interactive Weather Map New forecast layout! Learn more

10-Day Weather Forecast

Advertisements
Track Severe Weather on mobile